sensor_id;sensor_type;location;lat;lon;timestamp;pressure;altitude;pressure_sealevel;temperature;humidity
24825;BME280;12910;57.690;11.974;2023-04-23T00:02:15;99635.59;;;12.43;99.89
24825;BME280;12910;57.690;11.974;2023-04-23T00:04:48;99627.84;;;12.47;99.44
24825;BME280;12910;57.690;11.974;2023-04-23T00:07:14;99628.66;;;12.51;98.99
24825;BME280;12910;57.690;11.974;2023-04-23T00:09:42;99616.69;;;12.49;99.67
24825;BME280;12910;57.690;11.974;2023-04-23T00:12:08;99598.78;;;12.42;98.39
24825;BME280;12910;57.690;11.974;2023-04-23T00:14:34;99598.72;;;12.47;99.09
24825;BME280;12910;57.690;11.974;2023-04-23T00:16:59;99582.53;;;12.37;98.22
24825;BME280;12910;57.690;11.974;2023-04-23T00:19:25;99577.44;;;12.34;98.35
24825;BME280;12910;57.690;11.974;2023-04-23T00:21:50;99562.03;;;12.29;97.86
24825;BME280;12910;57.690;11.974;2023-04-23T00:24:16;99568.81;;;12.40;97.83
24825;BME280;12910;57.690;11.974;2023-04-23T00:26:41;99567.94;;;12.42;97.50
24825;BME280;12910;57.690;11.974;2023-04-23T00:29:07;99573.06;;;12.42;98.13
24825;BME280;12910;57.690;11.974;2023-04-23T00:31:32;99542.34;;;12.30;97.02
24825;BME280;12910;57.690;11.974;2023-04-23T00:33:57;99532.91;;;12.29;96.62
24825;BME280;12910;57.690;11.974;2023-04-23T00:36:23;99559.34;;;12.42;95.50
24825;BME280;12910;57.690;11.974;2023-04-23T00:38:50;99549.09;;;12.40;96.17
24825;BME280;12910;57.690;11.974;2023-04-23T00:41:15;99551.69;;;12.39;96.02
24825;BME280;12910;57.690;11.974;2023-04-23T00:43:41;99529.50;;;12.28;96.29
24825;BME280;12910;57.690;11.974;2023-04-23T00:46:07;99530.31;;;12.32;95.49
24825;BME280;12910;57.690;11.974;2023-04-23T00:48:34;99533.75;;;12.31;95.34
24825;BME280;12910;57.690;11.974;2023-04-23T00:51:04;99533.75;;;12.34;95.82
24825;BME280;12910;57.690;11.974;2023-04-23T00:53:31;99532.00;;;12.38;98.25
24825;BME280;12910;57.690;11.974;2023-04-23T00:55:56;99532.06;;;12.30;100.00
24825;BME280;12910;57.690;11.974;2023-04-23T00:58:22;99533.81;;;12.25;100.00
24825;BME280;12910;57.690;11.974;2023-04-23T01:00:47;99545.78;;;12.30;100.00
24825;BME280;12910;57.690;11.974;2023-04-23T01:03:15;99520.16;;;12.20;100.00
24825;BME280;12910;57.690;11.974;2023-04-23T01:05:42;99559.50;;;12.25;100.00
24825;BME280;12910;57.690;11.974;2023-04-23T01:08:09;99550.09;;;12.24;98.20
24825;BME280;12910;57.690;11.974;2023-04-23T01:10:39;99581.69;;;12.35;100.00
24825;BME280;12910;57.690;11.974;2023-04-23T01:13:05;99565.56;;;12.19;100.00
24825;BME280;12910;57.690;11.974;2023-04-23T01:15:30;99568.97;;;12.21;100.00
24825;BME280;12910;57.690;11.974;2023-04-23T01:17:55;99567.22;;;12.23;100.00
24825;BME280;12910;57.690;11.974;2023-04-23T01:20:22;99566.34;;;12.24;100.00
24825;BME280;12910;57.690;11.974;2023-04-23T01:22:48;99576.69;;;12.18;100.00
24825;BME280;12910;57.690;11.974;2023-04-23T01:25:13;99572.50;;;12.06;100.00
24825;BME280;12910;57.690;11.974;2023-04-23T01:27:39;99534.88;;;11.93;100.00
24825;BME280;12910;57.690;11.974;2023-04-23T01:30:06;99547.69;;;11.99;100.00
24825;BME280;12910;57.690;11.974;2023-04-23T01:32:33;99547.69;;;11.99;100.00
24825;BME280;12910;57.690;11.974;2023-04-23T01:35:00;99534.94;;;11.87;100.00
24825;BME280;12910;57.690;11.974;2023-04-23T01:37:27;99536.66;;;11.78;100.00
24825;BME280;12910;57.690;11.974;2023-04-23T01:39:53;99520.47;;;11.70;100.00
24825;BME280;12910;57.690;11.974;2023-04-23T01:42:19;99524.75;;;11.71;100.00
24825;BME280;12910;57.690;11.974;2023-04-23T01:44:44;99513.63;;;11.72;100.00
24825;BME280;12910;57.690;11.974;2023-04-23T01:47:10;99515.25;;;11.85;100.00
24825;BME280;12910;57.690;11.974;2023-04-23T01:49:35;99522.94;;;11.85;100.00
24825;BME280;12910;57.690;11.974;2023-04-23T01:52:01;99531.56;;;11.75;100.00
24825;BME280;12910;57.690;11.974;2023-04-23T01:54:26;99521.28;;;11.78;100.00
24825;BME280;12910;57.690;11.974;2023-04-23T01:56:52;99522.16;;;11.77;100.00
24825;BME280;12910;57.690;11.974;2023-04-23T01:59:20;99518.75;;;11.75;100.00
24825;BME280;12910;57.690;11.974;2023-04-23T02:01:47;99512.75;;;11.75;100.00
24825;BME280;12910;57.690;11.974;2023-04-23T02:04:14;99527.25;;;11.80;100.00
24825;BME280;12910;57.690;11.974;2023-04-23T02:06:41;99522.97;;;11.79;100.00
24825;BME280;12910;57.690;11.974;2023-04-23T02:09:08;99510.25;;;11.64;100.00
24825;BME280;12910;57.690;11.974;2023-04-23T02:11:33;99498.31;;;11.55;100.00
24825;BME280;12910;57.690;11.974;2023-04-23T02:14:00;99494.88;;;11.61;100.00
24825;BME280;12910;57.690;11.974;2023-04-23T02:16:25;99506.84;;;11.63;100.00
24825;BME280;12910;57.690;11.974;2023-04-23T02:18:52;99498.28;;;11.60;100.00
24825;BME280;12910;57.690;11.974;2023-04-23T02:21:18;99488.91;;;11.59;100.00
24825;BME280;12910;57.690;11.974;2023-04-23T02:23:43;99500.00;;;11.62;100.00
24825;BME280;12910;57.690;11.974;2023-04-23T02:26:09;99499.19;;;11.59;100.00
24825;BME280;12910;57.690;11.974;2023-04-23T02:28:35;99477.00;;;11.42;100.00
24825;BME280;12910;57.690;11.974;2023-04-23T02:31:00;99481.25;;;11.51;100.00
24825;BME280;12910;57.690;11.974;2023-04-23T02:33:25;99479.50;;;11.58;100.00
24825;BME280;12910;57.690;11.974;2023-04-23T02:35:51;99468.41;;;11.52;100.00
24825;BME280;12910;57.690;11.974;2023-04-23T02:38:16;99466.69;;;11.54;100.00
24825;BME280;12910;57.690;11.974;2023-04-23T02:40:41;99463.28;;;11.54;100.00
24825;BME280;12910;57.690;11.974;2023-04-23T02:43:07;99479.50;;;11.54;100.00
24825;BME280;12910;57.690;11.974;2023-04-23T02:45:33;99469.25;;;11.58;100.00
24825;BME280;12910;57.690;11.974;2023-04-23T02:47:58;99459.88;;;11.46;100.00
24825;BME280;12910;57.690;11.974;2023-04-23T02:50:24;99456.50;;;11.44;100.00
24825;BME280;12910;57.690;11.974;2023-04-23T02:52:49;99441.97;;;11.43;100.00
24825;BME280;12910;57.690;11.974;2023-04-23T02:55:14;99438.53;;;11.42;100.00
24825;BME280;12910;57.690;11.974;2023-04-23T02:57:40;99425.72;;;11.37;100.00
24825;BME280;12910;57.690;11.974;2023-04-23T03:00:07;99438.53;;;11.42;100.00
24825;BME280;12910;57.690;11.974;2023-04-23T03:02:32;99432.56;;;11.40;100.00
24825;BME280;12910;57.690;11.974;2023-04-23T03:04:58;99437.63;;;11.48;100.00
24825;BME280;12910;57.690;11.974;2023-04-23T03:07:23;99424.03;;;11.38;100.00
24825;BME280;12910;57.690;11.974;2023-04-23T03:09:48;99413.81;;;11.30;100.00
24825;BME280;12910;57.690;11.974;2023-04-23T03:12:14;99402.78;;;11.19;100.00
24825;BME280;12910;57.690;11.974;2023-04-23T03:14:40;99403.59;;;11.22;100.00
24825;BME280;12910;57.690;11.974;2023-04-23T03:17:05;99402.78;;;11.20;100.00
24825;BME280;12910;57.690;11.974;2023-04-23T03:19:31;99399.38;;;11.18;100.00
24825;BME280;12910;57.690;11.974;2023-04-23T03:21:57;99401.88;;;11.26;100.00
24825;BME280;12910;57.690;11.974;2023-04-23T03:24:23;99391.69;;;11.18;100.00
24825;BME280;12910;57.690;11.974;2023-04-23T03:26:48;99385.66;;;11.22;100.00
24825;BME280;12910;57.690;11.974;2023-04-23T03:29:15;99387.34;;;11.23;100.00
24825;BME280;12910;57.690;11.974;2023-04-23T03:31:40;99380.50;;;11.22;100.00
24825;BME280;12910;57.690;11.974;2023-04-23T03:34:05;99372.88;;;11.19;100.00
24825;BME280;12910;57.690;11.974;2023-04-23T03:36:31;99370.31;;;11.19;100.00
24825;BME280;12910;57.690;11.974;2023-04-23T03:38:56;99378.81;;;11.23;100.00
24825;BME280;12910;57.690;11.974;2023-04-23T03:41:22;99358.34;;;11.18;100.00
24825;BME280;12910;57.690;11.974;2023-04-23T03:43:48;99368.56;;;11.21;100.00
24825;BME280;12910;57.690;11.974;2023-04-23T03:46:13;99359.13;;;11.23;100.00
24825;BME280;12910;57.690;11.974;2023-04-23T03:48:38;99379.66;;;11.27;100.00
24825;BME280;12910;57.690;11.974;2023-04-23T03:51:04;99359.16;;;11.19;100.00
24825;BME280;12910;57.690;11.974;2023-04-23T03:53:29;99350.69;;;11.09;100.00
24825;BME280;12910;57.690;11.974;2023-04-23T03:55:55;99348.16;;;11.06;100.00
24825;BME280;12910;57.690;11.974;2023-04-23T03:58:20;99358.38;;;11.11;100.00
24825;BME280;12910;57.690;11.974;2023-04-23T04:00:46;99354.94;;;11.13;100.00
24825;BME280;12910;57.690;11.974;2023-04-23T04:03:11;99341.31;;;11.05;100.00
24825;BME280;12910;57.690;11.974;2023-04-23T04:05:36;99335.38;;;10.98;100.00
24825;BME280;12910;57.690;11.974;2023-04-23T04:08:02;99340.53;;;10.95;100.00
24825;BME280;12910;57.690;11.974;2023-04-23T04:10:29;99333.72;;;10.88;100.00
24825;BME280;12910;57.690;11.974;2023-04-23T04:12:54;99341.41;;;10.89;100.00
24825;BME280;12910;57.690;11.974;2023-04-23T04:15:20;99346.50;;;10.99;100.00
24825;BME280;12910;57.690;11.974;2023-04-23T04:17:45;99332.84;;;10.95;100.00
24825;BME280;12910;57.690;11.974;2023-04-23T04:20:11;99332.00;;;10.90;100.00
24825;BME280;12910;57.690;11.974;2023-04-23T04:22:37;99354.16;;;11.00;100.00
24825;BME280;12910;57.690;11.974;2023-04-23T04:25:02;99328.63;;;10.85;100.00
24825;BME280;12910;57.690;11.974;2023-04-23T04:27:29;99343.16;;;10.83;100.00
24825;BME280;12910;57.690;11.974;2023-04-23T04:29:58;99343.13;;;10.87;100.00
24825;BME280;12910;57.690;11.974;2023-04-23T04:32:23;99347.38;;;10.87;100.00
24825;BME280;12910;57.690;11.974;2023-04-23T04:34:48;99351.66;;;10.91;100.00
24825;BME280;12910;57.690;11.974;2023-04-23T04:37:14;99349.97;;;10.91;100.00
24825;BME280;12910;57.690;11.974;2023-04-23T04:39:40;99361.81;;;11.05;100.00
24825;BME280;12910;57.690;11.974;2023-04-23T04:42:05;99332.84;;;10.94;100.00
24825;BME280;12910;57.690;11.974;2023-04-23T04:44:31;99337.91;;;11.01;100.00
24825;BME280;12910;57.690;11.974;2023-04-23T04:46:56;99344.78;;;11.01;100.00
24825;BME280;12910;57.690;11.974;2023-04-23T04:49:22;99337.94;;;10.98;100.00
24825;BME280;12910;57.690;11.974;2023-04-23T04:51:48;99343.94;;;10.99;100.00
24825;BME280;12910;57.690;11.974;2023-04-23T04:54:13;99333.72;;;10.91;100.00
24825;BME280;12910;57.690;11.974;2023-04-23T04:56:38;99338.84;;;10.89;100.00
24825;BME280;12910;57.690;11.974;2023-04-23T04:59:04;99328.63;;;10.82;100.00
24825;BME280;12910;57.690;11.974;2023-04-23T05:01:30;99340.56;;;10.84;100.00
24825;BME280;12910;57.690;11.974;2023-04-23T05:03:56;99336.34;;;10.77;100.00
24825;BME280;12910;57.690;11.974;2023-04-23T05:06:22;99352.59;;;10.74;100.00
24825;BME280;12910;57.690;11.974;2023-04-23T05:08:47;99353.47;;;10.72;100.00
24825;BME280;12910;57.690;11.974;2023-04-23T05:11:14;99345.81;;;10.64;100.00
24825;BME280;12910;57.690;11.974;2023-04-23T05:13:40;99339.03;;;10.55;100.00
24825;BME280;12910;57.690;11.974;2023-04-23T05:16:05;99350.13;;;10.57;100.00
24825;BME280;12910;57.690;11.974;2023-04-23T05:18:31;99355.25;;;10.60;100.00
24825;BME280;12910;57.690;11.974;2023-04-23T05:20:57;99345.00;;;10.57;100.00
24825;BME280;12910;57.690;11.974;2023-04-23T05:23:22;99350.13;;;10.57;100.00
24825;BME280;12910;57.690;11.974;2023-04-23T05:25:47;99353.50;;;10.61;100.00
24825;BME280;12910;57.690;11.974;2023-04-23T05:28:14;99356.94;;;10.62;100.00
24825;BME280;12910;57.690;11.974;2023-04-23T05:30:39;99350.97;;;10.53;100.00
24825;BME280;12910;57.690;11.974;2023-04-23T05:33:05;99370.63;;;10.50;100.00
24825;BME280;12910;57.690;11.974;2023-04-23T05:35:30;99382.59;;;10.52;100.00
24825;BME280;12910;57.690;11.974;2023-04-23T05:37:56;99369.78;;;10.49;100.00
24825;BME280;12910;57.690;11.974;2023-04-23T05:40:21;99386.84;;;10.55;100.00
24825;BME280;12910;57.690;11.974;2023-04-23T05:42:47;99386.03;;;10.45;100.00
24825;BME280;12910;57.690;11.974;2023-04-23T05:45:12;99395.44;;;10.43;100.00
24825;BME280;12910;57.690;11.974;2023-04-23T05:47:37;99406.53;;;10.42;100.00
24825;BME280;12910;57.690;11.974;2023-04-23T05:50:04;99396.28;;;10.39;100.00
24825;BME280;12910;57.690;11.974;2023-04-23T05:52:29;99392.88;;;10.40;100.00
24825;BME280;12910;57.690;11.974;2023-04-23T05:54:57;99417.63;;;10.46;100.00
24825;BME280;12910;57.690;11.974;2023-04-23T05:57:22;99415.91;;;10.27;100.00
24825;BME280;12910;57.690;11.974;2023-04-23T05:59:48;99421.03;;;10.24;100.00
24825;BME280;12910;57.690;11.974;2023-04-23T06:02:13;99434.72;;;10.28;100.00
24825;BME280;12910;57.690;11.974;2023-04-23T06:04:39;99432.13;;;10.26;100.00
24825;BME280;12910;57.690;11.974;2023-04-23T06:07:05;99444.06;;;10.37;100.00
24825;BME280;12910;57.690;11.974;2023-04-23T06:09:30;99440.69;;;10.19;100.00
24825;BME280;12910;57.690;11.974;2023-04-23T06:11:55;99449.22;;;10.15;100.00
24825;BME280;12910;57.690;11.974;2023-04-23T06:14:21;99456.06;;;10.16;100.00
24825;BME280;12910;57.690;11.974;2023-04-23T06:16:46;99442.41;;;10.11;100.00
24825;BME280;12910;57.690;11.974;2023-04-23T06:19:12;99456.91;;;10.15;100.00
24825;BME280;12910;57.690;11.974;2023-04-23T06:21:37;99456.06;;;10.11;100.00
24825;BME280;12910;57.690;11.974;2023-04-23T06:24:04;99451.78;;;10.01;100.00
24825;BME280;12910;57.690;11.974;2023-04-23T06:26:30;99477.38;;;10.15;100.00
24825;BME280;12910;57.690;11.974;2023-04-23T06:28:55;99444.13;;;10.01;100.00
24825;BME280;12910;57.690;11.974;2023-04-23T06:31:21;99464.59;;;10.12;100.00
24825;BME280;12910;57.690;11.974;2023-04-23T06:33:46;99456.91;;;10.09;100.00
24825;BME280;12910;57.690;11.974;2023-04-23T06:36:11;99453.50;;;10.07;100.00
24825;BME280;12910;57.690;11.974;2023-04-23T06:38:38;99455.22;;;10.03;100.00
24825;BME280;12910;57.690;11.974;2023-04-23T06:41:04;99477.41;;;10.04;100.00
24825;BME280;12910;57.690;11.974;2023-04-23T06:43:29;99471.44;;;10.01;100.00
24825;BME280;12910;57.690;11.974;2023-04-23T06:45:55;99464.59;;;10.01;100.00
24825;BME280;12910;57.690;11.974;2023-04-23T06:48:21;99476.53;;;10.07;100.00
24825;BME280;12910;57.690;11.974;2023-04-23T06:50:47;99468.00;;;10.08;100.00
24825;BME280;12910;57.690;11.974;2023-04-23T06:53:13;99461.19;;;10.13;100.00
24825;BME280;12910;57.690;11.974;2023-04-23T06:55:38;99461.19;;;10.13;100.00
24825;BME280;12910;57.690;11.974;2023-04-23T06:58:03;99454.38;;;10.12;100.00
24825;BME280;12910;57.690;11.974;2023-04-23T07:00:31;99450.09;;;10.09;100.00
24825;BME280;12910;57.690;11.974;2023-04-23T07:02:57;99476.53;;;10.19;100.00
24825;BME280;12910;57.690;11.974;2023-04-23T07:05:22;99478.25;;;10.17;100.00
24825;BME280;12910;57.690;11.974;2023-04-23T07:07:47;99498.72;;;10.17;100.00
24825;BME280;12910;57.690;11.974;2023-04-23T07:10:13;99481.69;;;10.04;100.00
24825;BME280;12910;57.690;11.974;2023-04-23T07:12:38;99499.59;;;10.08;100.00
24825;BME280;12910;57.690;11.974;2023-04-23T07:15:04;99502.13;;;10.07;100.00
24825;BME280;12910;57.690;11.974;2023-04-23T07:17:31;99502.16;;;10.13;100.00
24825;BME280;12910;57.690;11.974;2023-04-23T07:19:56;99490.22;;;10.12;100.00
24825;BME280;12910;57.690;11.974;2023-04-23T07:22:25;99489.34;;;10.16;100.00
24825;BME280;12910;57.690;11.974;2023-04-23T07:24:51;99504.69;;;10.24;100.00
24825;BME280;12910;57.690;11.974;2023-04-23T07:27:17;99503.84;;;10.26;100.00
24825;BME280;12910;57.690;11.974;2023-04-23T07:29:42;99491.91;;;10.22;100.00
24825;BME280;12910;57.690;11.974;2023-04-23T07:32:08;99489.34;;;10.28;100.00
24825;BME280;12910;57.690;11.974;2023-04-23T07:34:33;99485.06;;;10.27;100.00
24825;BME280;12910;57.690;11.974;2023-04-23T07:37:01;99477.38;;;10.31;100.00
24825;BME280;12910;57.690;11.974;2023-04-23T07:39:26;99479.94;;;10.31;100.00
24825;BME280;12910;57.690;11.974;2023-04-23T07:41:52;99485.91;;;10.34;100.00
24825;BME280;12910;57.690;11.974;2023-04-23T07:44:17;99500.47;;;10.43;100.00
24825;BME280;12910;57.690;11.974;2023-04-23T07:46:42;99500.47;;;10.43;100.00
24825;BME280;12910;57.690;11.974;2023-04-23T07:49:08;99507.28;;;10.47;100.00
24825;BME280;12910;57.690;11.974;2023-04-23T07:51:33;99498.75;;;10.39;100.00
24825;BME280;12910;57.690;11.974;2023-04-23T07:53:59;99510.69;;;10.49;100.00
24825;BME280;12910;57.690;11.974;2023-04-23T07:56:24;99501.28;;;10.50;100.00
24825;BME280;12910;57.690;11.974;2023-04-23T07:58:50;99509.00;;;10.51;100.00
24825;BME280;12910;57.690;11.974;2023-04-23T08:01:18;99517.50;;;10.53;100.00
24825;BME280;12910;57.690;11.974;2023-04-23T08:03:43;99506.44;;;10.47;100.00
24825;BME280;12910;57.690;11.974;2023-04-23T08:06:11;99509.00;;;10.47;100.00
24825;BME280;12910;57.690;11.974;2023-04-23T08:08:37;99515.81;;;10.49;100.00
24825;BME280;12910;57.690;11.974;2023-04-23T08:11:04;99508.97;;;10.50;100.00
24825;BME280;12910;57.690;11.974;2023-04-23T08:13:30;99514.09;;;10.53;100.00
24825;BME280;12910;57.690;11.974;2023-04-23T08:15:55;99513.25;;;10.62;100.00
24825;BME280;12910;57.690;11.974;2023-04-23T08:18:20;99508.97;;;10.54;100.00
24825;BME280;12910;57.690;11.974;2023-04-23T08:20:46;99513.25;;;10.57;100.00
24825;BME280;12910;57.690;11.974;2023-04-23T08:23:12;99519.19;;;10.64;100.00
24825;BME280;12910;57.690;11.974;2023-04-23T08:25:37;99529.47;;;10.60;100.00
24825;BME280;12910;57.690;11.974;2023-04-23T08:28:03;99518.38;;;10.57;100.00
24825;BME280;12910;57.690;11.974;2023-04-23T08:30:28;99515.78;;;10.55;100.00
24825;BME280;12910;57.690;11.974;2023-04-23T08:32:54;99520.03;;;10.66;100.00
24825;BME280;12910;57.690;11.974;2023-04-23T08:35:19;99531.16;;;10.68;100.00
24825;BME280;12910;57.690;11.974;2023-04-23T08:37:45;99534.56;;;10.68;100.00
24825;BME280;12910;57.690;11.974;2023-04-23T08:40:11;99537.97;;;10.66;100.00
24825;BME280;12910;57.690;11.974;2023-04-23T08:42:56;99532.88;;;10.56;100.00
24825;BME280;12910;57.690;11.974;2023-04-23T08:45:23;99542.25;;;10.62;100.00
24825;BME280;12910;57.690;11.974;2023-04-23T08:47:48;99543.16;;;10.41;100.00
24825;BME280;12910;57.690;11.974;2023-04-23T08:50:16;99561.91;;;10.41;100.00
24825;BME280;12910;57.690;11.974;2023-04-23T08:52:55;99558.47;;;10.35;100.00
24825;BME280;12910;57.690;11.974;2023-04-23T08:55:22;99556.78;;;10.32;100.00
24825;BME280;12910;57.690;11.974;2023-04-23T08:57:49;99555.09;;;10.39;100.00
24825;BME280;12910;57.690;11.974;2023-04-23T09:00:17;99552.56;;;10.37;100.00
24825;BME280;12910;57.690;11.974;2023-04-23T09:02:46;99549.97;;;10.45;100.00
24825;BME280;12910;57.690;11.974;2023-04-23T09:05:12;99556.81;;;10.40;100.00
24825;BME280;12910;57.690;11.974;2023-04-23T09:07:38;99570.47;;;10.48;100.00
24825;BME280;12910;57.690;11.974;2023-04-23T09:10:05;99561.91;;;10.51;100.00
24825;BME280;12910;57.690;11.974;2023-04-23T09:12:34;99566.19;;;10.50;100.00
24825;BME280;12910;57.690;11.974;2023-04-23T09:15:00;99551.66;;;10.31;100.00
24825;BME280;12910;57.690;11.974;2023-04-23T09:17:27;99564.50;;;10.43;100.00
24825;BME280;12910;57.690;11.974;2023-04-23T09:19:54;99574.72;;;10.35;100.00
24825;BME280;12910;57.690;11.974;2023-04-23T09:25:07;99581.53;;;10.25;100.00
24825;BME280;12910;57.690;11.974;2023-04-23T09:27:33;99579.81;;;10.13;100.00
24825;BME280;12910;57.690;11.974;2023-04-23T09:30:01;99562.75;;;10.09;100.00
24825;BME280;12910;57.690;11.974;2023-04-23T09:32:40;99589.19;;;10.35;100.00
24825;BME280;12910;57.690;11.974;2023-04-23T09:35:16;99566.16;;;10.25;100.00
24825;BME280;12910;57.690;11.974;2023-04-23T09:37:45;99566.19;;;10.32;100.00
24825;BME280;12910;57.690;11.974;2023-04-23T09:40:18;99584.09;;;10.32;100.00
24825;BME280;12910;57.690;11.974;2023-04-23T09:42:48;99565.31;;;10.20;100.00
24825;BME280;12910;57.690;11.974;2023-04-23T09:45:14;99568.72;;;10.22;100.00
24825;BME280;12910;57.690;11.974;2023-04-23T09:47:47;99579.00;;;10.38;100.00
24825;BME280;12910;57.690;11.974;2023-04-23T09:50:13;99575.59;;;10.42;100.00
24825;BME280;12910;57.690;11.974;2023-04-23T09:52:38;99570.47;;;10.37;100.00
24825;BME280;12910;57.690;11.974;2023-04-23T09:55:05;99570.47;;;10.37;100.00
24825;BME280;12910;57.690;11.974;2023-04-23T09:57:40;99573.88;;;10.55;100.00
24825;BME280;12910;57.690;11.974;2023-04-23T10:00:17;99568.75;;;10.56;100.00
24825;BME280;12910;57.690;11.974;2023-04-23T10:02:47;99575.59;;;10.60;100.00
24825;BME280;12910;57.690;11.974;2023-04-23T10:05:18;99572.16;;;10.65;100.00
24825;BME280;12910;57.690;11.974;2023-04-23T10:07:44;99574.75;;;10.48;100.00
24825;BME280;12910;57.690;11.974;2023-04-23T10:10:14;99575.59;;;10.39;100.00
24825;BME280;12910;57.690;11.974;2023-04-23T10:12:41;99573.88;;;10.38;100.00
24825;BME280;12910;57.690;11.974;2023-04-23T10:15:08;99561.06;;;10.32;100.00
24825;BME280;12910;57.690;11.974;2023-04-23T10:17:35;99561.88;;;10.24;100.00
24825;BME280;12910;57.690;11.974;2023-04-23T10:20:00;99550.78;;;10.01;100.00
24825;BME280;12910;57.690;11.974;2023-04-23T10:22:28;99569.56;;;10.10;100.00
24825;BME280;12910;57.690;11.974;2023-04-23T10:24:55;99544.81;;;9.92;100.00
24825;BME280;12910;57.690;11.974;2023-04-23T10:27:26;99577.22;;;10.06;100.00
24825;BME280;12910;57.690;11.974;2023-04-23T10:29:52;99567.88;;;10.09;100.00
24825;BME280;12910;57.690;11.974;2023-04-23T10:32:19;99576.41;;;10.21;100.00
24825;BME280;12910;57.690;11.974;2023-04-23T10:34:45;99572.13;;;10.24;100.00
24825;BME280;12910;57.690;11.974;2023-04-23T10:37:11;99555.09;;;10.19;100.00
24825;BME280;12910;57.690;11.974;2023-04-23T10:39:42;99566.16;;;10.28;100.00
24825;BME280;12910;57.690;11.974;2023-04-23T10:42:08;99559.34;;;10.18;100.00
24825;BME280;12910;57.690;11.974;2023-04-23T10:44:40;99580.72;;;10.39;100.00
24825;BME280;12910;57.690;11.974;2023-04-23T10:47:11;99565.34;;;10.42;100.00
24825;BME280;12910;57.690;11.974;2023-04-23T10:49:37;99573.88;;;10.56;100.00
24825;BME280;12910;57.690;11.974;2023-04-23T10:52:07;99562.78;;;10.57;100.00
24825;BME280;12910;57.690;11.974;2023-04-23T10:54:34;99566.19;;;10.59;100.00
24825;BME280;12910;57.690;11.974;2023-04-23T10:57:04;99552.53;;;10.53;100.00
24825;BME280;12910;57.690;11.974;2023-04-23T10:59:32;99550.81;;;10.44;100.00
24825;BME280;12910;57.690;11.974;2023-04-23T11:02:05;99551.69;;;10.40;100.00
24825;BME280;12910;57.690;11.974;2023-04-23T11:04:33;99553.38;;;10.27;100.00
24825;BME280;12910;57.690;11.974;2023-04-23T11:07:06;99559.31;;;10.24;100.00
24825;BME280;12910;57.690;11.974;2023-04-23T11:09:40;99569.59;;;10.31;100.00
24825;BME280;12910;57.690;11.974;2023-04-23T11:12:09;99564.44;;;10.23;100.00
24825;BME280;12910;57.690;11.974;2023-04-23T11:14:49;99575.56;;;10.14;100.00
24825;BME280;12910;57.690;11.974;2023-04-23T11:17:16;99568.72;;;10.14;100.00
24825;BME280;12910;57.690;11.974;2023-04-23T11:20:06;99563.59;;;10.14;100.00
24825;BME280;12910;57.690;11.974;2023-04-23T11:22:35;99537.16;;;10.14;100.00
24825;BME280;12910;57.690;11.974;2023-04-23T11:25:01;99561.94;;;10.43;100.00
24825;BME280;12910;57.690;11.974;2023-04-23T11:27:28;99549.13;;;10.52;100.00
24825;BME280;12910;57.690;11.974;2023-04-23T11:29:54;99537.13;;;10.54;100.00
24825;BME280;12910;57.690;11.974;2023-04-23T11:32:20;99532.88;;;10.59;100.00
24825;BME280;12910;57.690;11.974;2023-04-23T11:34:46;99512.41;;;10.50;100.00
24825;BME280;12910;57.690;11.974;2023-04-23T11:37:14;99487.63;;;10.35;100.00
24825;BME280;12910;57.690;11.974;2023-04-23T11:39:42;99493.59;;;10.50;100.00
24825;BME280;12910;57.690;11.974;2023-04-23T11:42:15;99502.13;;;10.59;100.00
24825;BME280;12910;57.690;11.974;2023-04-23T11:44:42;99498.72;;;10.60;100.00
24825;BME280;12910;57.690;11.974;2023-04-23T11:47:09;99496.16;;;10.57;100.00
24825;BME280;12910;57.690;11.974;2023-04-23T11:49:36;99504.72;;;10.58;100.00
24825;BME280;12910;57.690;11.974;2023-04-23T11:52:02;99500.44;;;10.49;100.00
24825;BME280;12910;57.690;11.974;2023-04-23T11:54:28;99514.97;;;10.50;100.00
24825;BME280;12910;57.690;11.974;2023-04-23T11:56:54;99512.41;;;10.38;100.00
24825;BME280;12910;57.690;11.974;2023-04-23T11:59:21;99517.50;;;10.44;100.00
24825;BME280;12910;57.690;11.974;2023-04-23T12:01:54;99524.34;;;10.51;100.00
24825;BME280;12910;57.690;11.974;2023-04-23T12:04:21;99514.97;;;10.41;100.00
24825;BME280;12910;57.690;11.974;2023-04-23T12:06:49;99532.03;;;10.48;100.00
24825;BME280;12910;57.690;11.974;2023-04-23T12:09:15;99513.25;;;10.21;100.00
24825;BME280;12910;57.690;11.974;2023-04-23T12:11:42;99527.72;;;10.35;100.00
24825;BME280;12910;57.690;11.974;2023-04-23T12:14:10;99533.72;;;10.37;100.00
24825;BME280;12910;57.690;11.974;2023-04-23T12:16:40;99514.97;;;10.27;100.00
24825;BME280;12910;57.690;11.974;2023-04-23T12:19:14;99524.31;;;10.26;100.00
24825;BME280;12910;57.690;11.974;2023-04-23T12:21:57;99529.47;;;10.33;100.00
24825;BME280;12910;57.690;11.974;2023-04-23T12:24:28;99526.03;;;10.24;100.00
24825;BME280;12910;57.690;11.974;2023-04-23T12:26:59;99520.06;;;10.25;100.00
24825;BME280;12910;57.690;11.974;2023-04-23T12:29:28;99538.84;;;10.51;100.00
24825;BME280;12910;57.690;11.974;2023-04-23T12:31:57;99529.47;;;10.60;100.00
24825;BME280;12910;57.690;11.974;2023-04-23T12:34:22;99535.44;;;10.63;100.00
24825;BME280;12910;57.690;11.974;2023-04-23T12:36:50;99535.41;;;10.70;100.00
24825;BME280;12910;57.690;11.974;2023-04-23T12:41:52;99532.91;;;10.50;100.00
24825;BME280;12910;57.690;11.974;2023-04-23T12:44:17;99531.19;;;10.51;100.00